createdAt,value
2018-03-02T00:01:33.653Z,57.17
2018-03-02T00:04:01.258Z,57.01
2018-03-02T00:06:29.399Z,57.01
2018-03-02T00:08:57.034Z,58.74
2018-03-02T00:11:24.712Z,59.72
2018-03-02T00:13:52.375Z,60.04
2018-03-02T00:16:19.986Z,59.87
2018-03-02T00:18:47.530Z,60.04
2018-03-02T00:21:15.119Z,59.82
2018-03-02T00:23:42.676Z,60.59
2018-03-02T00:26:10.262Z,59.77
2018-03-02T00:28:37.867Z,60.15
2018-03-02T00:31:05.739Z,59.67
2018-03-02T00:33:33.656Z,59.13
2018-03-02T00:36:01.267Z,59.72
2018-03-02T00:38:28.850Z,59.98
2018-03-02T00:40:56.603Z,60.11
2018-03-02T00:43:24.153Z,60.58
2018-03-02T00:45:51.707Z,60.25
2018-03-02T00:48:19.299Z,60.13
2018-03-02T00:50:46.842Z,59.84
2018-03-02T00:53:14.430Z,60.00
2018-03-02T00:55:42.062Z,59.56
2018-03-02T00:58:09.650Z,59.14
2018-03-02T01:00:37.202Z,59.37
2018-03-02T01:03:04.983Z,59.16
2018-03-02T01:05:32.748Z,59.04
2018-03-02T01:08:00.565Z,58.62
2018-03-02T01:10:28.107Z,57.67
2018-03-02T01:12:55.690Z,57.41
2018-03-02T01:15:23.240Z,57.93
2018-03-02T01:17:50.793Z,57.65
2018-03-02T01:20:18.373Z,57.02
2018-03-02T01:22:45.927Z,57.05
2018-03-02T01:25:13.506Z,56.51
2018-03-02T01:27:41.587Z,54.70
2018-03-02T01:30:09.164Z,54.19
2018-03-02T01:32:36.744Z,54.25
2018-03-02T01:35:04.339Z,54.14
2018-03-02T01:37:31.955Z,54.85
2018-03-02T01:39:59.530Z,54.35
2018-03-02T01:42:27.146Z,54.15
2018-03-02T01:44:54.722Z,53.11
2018-03-02T01:47:22.262Z,52.83
2018-03-02T01:49:49.854Z,54.52
2018-03-02T01:52:17.714Z,54.71
2018-03-02T01:54:45.295Z,53.23
2018-03-02T01:57:13.004Z,53.12
2018-03-02T01:59:40.984Z,52.75
2018-03-02T02:02:08.606Z,53.58
2018-03-02T02:04:36.514Z,53.73
2018-03-02T02:07:04.111Z,53.12
2018-03-02T02:09:31.663Z,54.36
2018-03-02T02:11:59.206Z,54.80
2018-03-02T02:14:26.797Z,54.42
2018-03-02T02:16:54.716Z,54.55
2018-03-02T02:19:22.305Z,54.59
2018-03-02T02:21:49.848Z,55.06
2018-03-02T02:24:17.828Z,53.52
2018-03-02T02:26:45.379Z,54.24
2018-03-02T02:29:12.971Z,53.80
2018-03-02T02:31:40.528Z,54.64
2018-03-02T02:34:08.171Z,55.78
2018-03-02T02:36:35.762Z,56.09
2018-03-02T02:39:04.260Z,54.87
2018-03-02T02:41:31.910Z,53.75
2018-03-02T02:43:59.519Z,55.55
2018-03-02T02:46:27.403Z,57.32
2018-03-02T02:48:54.952Z,57.51
2018-03-02T02:51:22.543Z,57.71
2018-03-02T02:53:50.125Z,60.70
2018-03-02T02:56:17.670Z,61.12
2018-03-02T02:58:46.107Z,60.90
2018-03-02T03:01:13.654Z,59.64
2018-03-02T03:03:41.226Z,58.58
2018-03-02T03:06:09.251Z,57.89
2018-03-02T03:08:37.278Z,56.97
2018-03-02T03:11:04.878Z,56.77
2018-03-02T03:13:32.431Z,57.72
2018-03-02T03:16:00.092Z,57.80
2018-03-02T03:18:27.634Z,57.06
2018-03-02T03:20:55.231Z,56.00
2018-03-02T03:23:22.863Z,54.99
2018-03-02T03:25:50.415Z,55.65
2018-03-02T03:28:18.010Z,56.64
2018-03-02T03:30:45.614Z,56.46
2018-03-02T03:33:13.168Z,55.00
2018-03-02T03:35:40.714Z,54.92
2018-03-02T03:38:08.330Z,54.22
2018-03-02T03:40:35.882Z,55.19
2018-03-02T03:43:03.486Z,54.53
2018-03-02T03:45:31.030Z,56.14
2018-03-02T03:47:58.577Z,55.91
2018-03-02T03:50:26.667Z,54.53
2018-03-02T03:52:54.506Z,53.83
2018-03-02T03:55:22.340Z,54.22
2018-03-02T03:57:49.924Z,52.80
2018-03-02T04:00:17.475Z,53.26
2018-03-02T04:02:46.036Z,53.55
2018-03-02T04:05:13.647Z,52.66
2018-03-02T04:07:41.227Z,52.55
2018-03-02T04:10:08.838Z,51.52
2018-03-02T04:12:36.431Z,50.88
2018-03-02T04:15:04.195Z,49.39
2018-03-02T04:17:31.741Z,50.38
2018-03-02T04:19:59.466Z,50.97
2018-03-02T04:22:27.005Z,50.80
2018-03-02T04:24:54.582Z,52.46
2018-03-02T04:27:22.189Z,53.67
2018-03-02T04:29:49.735Z,54.64
2018-03-02T04:32:17.287Z,56.33
2018-03-02T04:34:44.858Z,55.14
2018-03-02T04:37:12.443Z,54.94
2018-03-02T04:39:40.322Z,54.09
2018-03-02T04:42:08.087Z,53.33
2018-03-02T04:44:35.675Z,53.56
2018-03-02T04:47:03.214Z,54.15
2018-03-02T04:49:30.798Z,52.89
2018-03-02T04:51:58.338Z,51.96
2018-03-02T04:54:25.922Z,53.40
2018-03-02T04:56:53.470Z,54.47
2018-03-02T04:59:22.357Z,54.28
2018-03-02T05:01:50.866Z,55.24
2018-03-02T05:04:18.419Z,55.43
2018-03-02T05:06:46.024Z,54.82
2018-03-02T05:09:14.039Z,54.38
2018-03-02T05:11:42.110Z,54.38
2018-03-02T05:14:09.715Z,55.31
2018-03-02T05:16:37.275Z,55.34
2018-03-02T05:19:04.822Z,55.08
2018-03-02T05:21:32.398Z,53.05
2018-03-02T05:24:00.278Z,51.83
2018-03-02T05:26:28.389Z,51.45
2018-03-02T05:28:56.325Z,51.06
2018-03-02T05:31:24.490Z,50.51
2018-03-02T05:33:52.039Z,49.87
2018-03-02T05:36:19.655Z,50.16
2018-03-02T05:38:47.190Z,49.81
2018-03-02T05:41:14.767Z,49.42
2018-03-02T05:43:42.366Z,49.99
2018-03-02T05:46:10.308Z,50.79
2018-03-02T05:48:37.961Z,50.86
2018-03-02T05:51:05.507Z,50.07
2018-03-02T05:53:33.488Z,51.20
2018-03-02T05:56:01.394Z,52.34
2018-03-02T05:58:29.768Z,53.17
2018-03-02T06:00:58.320Z,54.24
2018-03-02T06:03:25.878Z,54.72
2018-03-02T06:05:53.426Z,53.70
2018-03-02T06:08:21.014Z,55.24
2018-03-02T06:10:48.588Z,55.52
2018-03-02T06:13:17.142Z,55.26
2018-03-02T06:15:45.382Z,56.23
2018-03-02T06:18:13.920Z,54.65
2018-03-02T06:20:41.740Z,55.73
2018-03-02T06:23:09.352Z,54.66
2018-03-02T06:25:36.942Z,53.76
2018-03-02T06:28:04.505Z,53.34
2018-03-02T06:30:32.719Z,53.42
2018-03-02T06:33:00.269Z,54.00
2018-03-02T06:35:27.901Z,54.28
2018-03-02T06:37:55.782Z,54.28
2018-03-02T06:40:23.326Z,54.44
2018-03-02T06:42:50.920Z,53.89
2018-03-02T06:45:18.873Z,53.36
2018-03-02T06:47:46.427Z,53.10
2018-03-02T06:50:14.014Z,52.67
2018-03-02T06:52:41.843Z,53.18
2018-03-02T06:55:09.809Z,50.39
2018-03-02T06:57:37.416Z,51.25
2018-03-02T07:00:05.827Z,50.92
2018-03-02T07:02:33.659Z,50.28
2018-03-02T07:05:01.239Z,50.33
2018-03-02T07:07:29.191Z,51.70
2018-03-02T07:09:56.750Z,51.64
2018-03-02T07:12:25.268Z,49.96
2018-03-02T07:14:53.078Z,50.38
2018-03-02T07:17:20.666Z,50.56
2018-03-02T07:19:48.247Z,49.48
2018-03-02T07:22:16.736Z,49.90
2018-03-02T07:24:44.682Z,52.15
2018-03-02T07:27:12.227Z,49.60
2018-03-02T07:29:39.810Z,50.11
2018-03-02T07:32:08.150Z,50.43
2018-03-02T07:34:36.132Z,51.06
2018-03-02T07:37:03.712Z,51.32
2018-03-02T07:39:31.315Z,51.63
2018-03-02T07:41:58.895Z,51.37
2018-03-02T07:44:26.443Z,51.52
2018-03-02T07:46:54.402Z,51.54
2018-03-02T07:49:21.967Z,50.57
2018-03-02T07:51:49.555Z,47.51
2018-03-02T07:54:17.497Z,48.68
2018-03-02T07:56:45.090Z,48.19
2018-03-02T07:59:12.631Z,48.08
2018-03-02T08:01:40.187Z,48.21
2018-03-02T08:04:08.069Z,48.76
2018-03-02T08:06:35.606Z,47.92
2018-03-02T08:09:03.600Z,48.39
2018-03-02T08:11:31.431Z,46.81
2018-03-02T08:13:59.006Z,47.58
2018-03-02T08:16:26.628Z,48.85
2018-03-02T08:18:54.361Z,47.61
2018-03-02T08:21:21.905Z,45.32
2018-03-02T08:23:49.576Z,45.40
2018-03-02T08:26:17.309Z,47.15
2018-03-02T08:28:44.892Z,46.01
2018-03-02T08:31:12.482Z,46.06
2018-03-02T08:33:40.023Z,46.06
2018-03-02T08:36:07.602Z,44.65
2018-03-02T08:38:35.419Z,46.30
2018-03-02T08:41:03.919Z,44.60
2018-03-02T08:43:31.835Z,45.68
2018-03-02T08:45:59.398Z,43.53
2018-03-02T08:48:27.192Z,42.70
2018-03-02T08:50:54.947Z,41.95
2018-03-02T08:53:22.559Z,44.28
2018-03-02T08:55:50.404Z,42.75
2018-03-02T08:58:18.348Z,43.49
2018-03-02T09:00:45.950Z,44.86
2018-03-02T09:03:13.840Z,43.95
2018-03-02T09:05:41.803Z,43.71
2018-03-02T09:08:10.252Z,41.41
2018-03-02T09:10:38.298Z,42.99
2018-03-02T09:13:05.840Z,41.76
2018-03-02T09:15:33.861Z,42.46
2018-03-02T09:18:01.584Z,41.46
2018-03-02T09:20:29.387Z,44.00
2018-03-02T09:22:57.125Z,43.54
2018-03-02T09:25:24.723Z,41.97
2018-03-02T09:27:52.552Z,41.92
2018-03-02T09:30:20.142Z,40.33
2018-03-02T09:32:48.559Z,42.48
2018-03-02T09:35:16.155Z,44.43
2018-03-02T09:37:43.740Z,43.01
2018-03-02T09:40:11.275Z,41.34
2018-03-02T09:42:38.868Z,42.13
2018-03-02T09:45:06.567Z,43.29
2018-03-02T09:47:34.920Z,42.72
2018-03-02T09:50:03.094Z,43.06
2018-03-02T09:52:30.669Z,43.04
2018-03-02T09:54:58.259Z,44.29
2018-03-02T09:57:26.155Z,43.71
2018-03-02T09:59:55.044Z,43.04
2018-03-02T10:02:22.960Z,43.35
2018-03-02T10:04:51.444Z,44.00
2018-03-02T10:07:19.100Z,43.39
2018-03-02T10:09:47.014Z,43.24
2018-03-02T10:12:15.400Z,42.89
2018-03-02T10:14:43.320Z,42.34
2018-03-02T10:17:10.906Z,43.73
2018-03-02T10:19:38.447Z,42.80
2018-03-02T10:22:06.051Z,43.59
2018-03-02T10:24:34.023Z,43.51
2018-03-02T10:27:02.768Z,42.10
2018-03-02T10:29:30.360Z,42.96
2018-03-02T10:31:57.969Z,43.71
2018-03-02T10:34:25.560Z,44.81
2018-03-02T10:36:53.146Z,44.92
2018-03-02T10:39:20.747Z,43.01
2018-03-02T10:41:48.365Z,41.20
2018-03-02T10:44:15.983Z,43.08
2018-03-02T10:46:43.526Z,42.25
2018-03-02T10:49:11.149Z,42.49
2018-03-02T10:51:38.682Z,41.77
2018-03-02T10:54:06.338Z,41.33
2018-03-02T10:56:33.921Z,41.87
2018-03-02T10:59:01.471Z,43.73
2018-03-02T11:01:29.566Z,44.41
2018-03-02T11:04:01.048Z,43.85
2018-03-02T11:06:28.663Z,42.71
2018-03-02T11:08:56.235Z,42.46
2018-03-02T11:11:23.889Z,42.29
2018-03-02T11:13:51.474Z,41.99
2018-03-02T11:16:19.043Z,41.70
2018-03-02T11:18:46.633Z,41.53
2018-03-02T11:21:14.220Z,41.22
2018-03-02T11:23:41.879Z,41.10
2018-03-02T11:26:09.489Z,40.98
2018-03-02T11:28:38.628Z,40.50
2018-03-02T11:31:06.214Z,40.82
2018-03-02T11:33:33.883Z,37.93
2018-03-02T11:36:02.564Z,39.82
2018-03-02T11:38:30.118Z,42.29
2018-03-02T11:40:57.740Z,42.34
2018-03-02T11:43:26.195Z,43.39
2018-03-02T11:45:53.758Z,43.77
2018-03-02T11:48:23.296Z,42.89
2018-03-02T11:50:51.304Z,44.41
2018-03-02T11:53:18.930Z,41.43
2018-03-02T11:55:47.148Z,42.45
2018-03-02T11:58:14.691Z,43.92
2018-03-02T12:00:42.279Z,42.85
2018-03-02T12:03:09.838Z,43.04
2018-03-02T12:05:37.495Z,43.95
2018-03-02T12:08:05.114Z,42.71
2018-03-02T12:10:33.863Z,39.01
2018-03-02T12:13:02.350Z,40.37
2018-03-02T12:15:29.943Z,40.53
2018-03-02T12:17:57.492Z,40.99
2018-03-02T12:20:25.579Z,41.52
2018-03-02T12:22:53.154Z,41.80
2018-03-02T12:25:21.342Z,42.47
2018-03-02T12:27:49.334Z,40.54
2018-03-02T12:30:20.776Z,39.48
2018-03-02T12:32:49.580Z,40.35
2018-03-02T12:35:17.579Z,38.76
2018-03-02T12:37:45.164Z,38.00
2018-03-02T12:40:12.846Z,39.55
2018-03-02T12:42:41.574Z,38.53
2018-03-02T12:45:09.153Z,38.09
2018-03-02T12:47:36.805Z,40.19
2018-03-02T12:50:05.803Z,38.29
2018-03-02T12:52:33.355Z,40.33
2018-03-02T12:55:00.939Z,39.88
2018-03-02T12:57:28.532Z,40.79
2018-03-02T12:59:56.105Z,39.74
2018-03-02T13:02:23.695Z,39.66
2018-03-02T13:04:51.430Z,39.45
2018-03-02T13:07:19.778Z,38.33
2018-03-02T13:09:47.386Z,36.81
2018-03-02T13:12:15.896Z,39.87
2018-03-02T13:14:43.480Z,39.72
2018-03-02T13:17:13.189Z,38.17
2018-03-02T13:19:40.762Z,40.08
2018-03-02T13:22:20.106Z,40.33
2018-03-02T13:24:48.597Z,39.90
2018-03-02T13:27:27.757Z,40.71
2018-03-02T13:29:55.294Z,40.64
2018-03-02T13:32:22.852Z,40.00
2018-03-02T13:35:02.013Z,41.17
2018-03-02T13:37:30.096Z,40.94
2018-03-02T13:40:09.526Z,40.44
2018-03-02T13:42:38.839Z,41.24
2018-03-02T13:45:06.428Z,42.36
2018-03-02T13:50:50.990Z,42.40
2018-03-02T13:53:18.571Z,40.54
2018-03-02T13:55:46.146Z,42.17
2018-03-02T13:58:14.790Z,41.97
2018-03-02T14:00:42.398Z,41.34
2018-03-02T14:03:22.115Z,40.86
2018-03-02T14:05:49.711Z,41.37
2018-03-02T14:08:17.306Z,40.76
2018-03-02T14:10:45.169Z,40.32
2018-03-02T14:13:12.717Z,42.25
2018-03-02T14:15:40.320Z,42.53
2018-03-02T14:18:07.902Z,42.27
2018-03-02T14:20:36.017Z,42.54
2018-03-02T14:23:03.616Z,42.36
2018-03-02T14:25:32.142Z,42.24
2018-03-02T14:27:59.714Z,41.97
2018-03-02T14:30:28.196Z,41.11
2018-03-02T14:32:56.877Z,40.37
2018-03-02T14:35:24.483Z,41.70
2018-03-02T14:37:52.935Z,42.34
2018-03-02T14:40:20.489Z,41.85
2018-03-02T14:42:48.512Z,42.89
2018-03-02T14:45:16.064Z,43.50
2018-03-02T14:47:43.657Z,43.01
2018-03-02T14:50:11.264Z,43.16
2018-03-02T14:52:38.802Z,42.61
2018-03-02T14:55:06.375Z,42.00
2018-03-02T14:57:34.832Z,42.84
2018-03-02T15:00:03.592Z,43.14
2018-03-02T15:02:31.147Z,43.17
2018-03-02T15:04:59.913Z,43.20
2018-03-02T15:07:27.519Z,43.23
2018-03-02T15:09:56.105Z,42.60
2018-03-02T15:12:24.221Z,42.02
2018-03-02T15:14:51.778Z,43.62
2018-03-02T15:17:19.384Z,43.08
2018-03-02T15:19:46.927Z,45.19
2018-03-02T15:22:14.480Z,44.46
2018-03-02T15:24:42.082Z,44.42
2018-03-02T15:27:10.266Z,44.45
2018-03-02T15:29:38.655Z,43.91
2018-03-02T15:32:06.200Z,42.96
2018-03-02T15:34:35.587Z,44.34
2018-03-02T15:37:03.164Z,44.87
2018-03-02T15:39:30.757Z,44.02
2018-03-02T15:41:58.359Z,43.21
2018-03-02T15:44:25.902Z,44.57
2018-03-02T15:46:54.230Z,44.38
2018-03-02T15:49:21.819Z,46.54
2018-03-02T15:51:49.558Z,46.45
2018-03-02T15:54:17.168Z,45.99
2018-03-02T15:56:45.514Z,45.42
2018-03-02T15:59:13.667Z,46.88
2018-03-02T16:01:42.924Z,46.80
2018-03-02T16:04:11.595Z,46.69
2018-03-02T16:06:39.142Z,46.21
2018-03-02T16:09:07.675Z,45.72
2018-03-02T16:11:35.227Z,45.83
2018-03-02T16:14:03.026Z,45.25
2018-03-02T16:16:30.692Z,45.25
2018-03-02T16:18:58.784Z,46.59
2018-03-02T16:21:26.377Z,46.27
2018-03-02T16:23:53.987Z,45.60
2018-03-02T16:26:21.546Z,45.60
2018-03-02T16:28:49.716Z,45.54
2018-03-02T16:31:17.343Z,45.06
2018-03-02T16:33:45.433Z,45.12
2018-03-02T16:36:13.495Z,46.31
2018-03-02T16:38:41.395Z,46.76
2018-03-02T16:41:08.972Z,46.53
2018-03-02T16:43:36.558Z,45.84
2018-03-02T16:46:04.106Z,47.09
2018-03-02T16:48:31.704Z,47.56
2018-03-02T16:51:00.606Z,47.61
2018-03-02T16:53:28.216Z,46.95
2018-03-02T16:55:55.972Z,46.26
2018-03-02T16:58:23.874Z,47.49
2018-03-02T17:00:52.492Z,48.50
2018-03-02T17:03:20.076Z,48.87
2018-03-02T17:05:47.677Z,48.27
2018-03-02T17:08:16.792Z,46.93
2018-03-02T17:10:44.773Z,47.18
2018-03-02T17:13:13.430Z,46.93
2018-03-02T17:15:41.488Z,48.89
2018-03-02T17:18:10.158Z,50.00
2018-03-02T17:20:37.705Z,50.37
2018-03-02T17:23:06.336Z,51.96
2018-03-02T17:25:34.310Z,52.56
2018-03-02T17:28:02.297Z,51.51
2018-03-02T17:30:31.797Z,52.05
2018-03-02T17:32:59.901Z,51.22
2018-03-02T17:35:27.698Z,50.61
2018-03-02T17:37:55.325Z,49.61
2018-03-02T17:40:22.895Z,49.12
2018-03-02T17:42:50.997Z,48.77
2018-03-02T17:45:19.240Z,48.72
2018-03-02T17:47:47.534Z,48.17
2018-03-02T17:50:15.729Z,48.35
2018-03-02T17:52:44.476Z,48.12
2018-03-02T17:55:12.301Z,47.99
2018-03-02T17:57:40.447Z,50.11
2018-03-02T18:00:09.333Z,50.09
2018-03-02T18:02:37.844Z,52.00
2018-03-02T18:05:05.871Z,52.90
2018-03-02T18:07:34.714Z,53.22
2018-03-02T18:10:02.341Z,52.77
2018-03-02T18:12:30.250Z,52.90
2018-03-02T18:14:58.145Z,51.77
2018-03-02T18:17:30.037Z,52.18
2018-03-02T18:19:58.207Z,51.73
2018-03-02T18:22:27.286Z,51.98
2018-03-02T18:24:55.344Z,51.53
2018-03-02T18:27:23.582Z,52.63
2018-03-02T18:29:52.270Z,52.65
2018-03-02T18:32:20.668Z,53.45
2018-03-02T18:34:49.324Z,53.37
2018-03-02T18:37:18.193Z,53.62
2018-03-02T18:39:46.168Z,53.54
2018-03-02T18:42:13.769Z,52.10
2018-03-02T18:44:41.392Z,53.52
2018-03-02T18:47:09.962Z,54.57
2018-03-02T18:49:37.734Z,54.76
2018-03-02T18:52:06.346Z,54.05
2018-03-02T18:54:33.953Z,52.35
2018-03-02T18:57:01.503Z,52.86
2018-03-02T18:59:29.406Z,53.41
2018-03-02T19:01:58.724Z,53.37
2018-03-02T19:04:27.008Z,53.85
2018-03-02T19:06:55.025Z,53.82
2018-03-02T19:09:23.032Z,54.79
2018-03-02T19:11:51.318Z,55.19
2018-03-02T19:14:19.558Z,54.80
2018-03-02T19:16:48.299Z,54.29
2018-03-02T19:19:16.775Z,53.15
2018-03-02T19:21:45.508Z,51.82
2018-03-02T19:24:13.735Z,52.74
2018-03-02T19:26:41.360Z,53.74
2018-03-02T19:29:09.032Z,54.77
2018-03-02T19:31:37.776Z,54.73
2018-03-02T19:34:08.786Z,54.51
2018-03-02T19:36:37.478Z,54.99
2018-03-02T19:39:05.868Z,54.78
2018-03-02T19:41:34.321Z,54.38
2018-03-02T19:44:03.940Z,55.03
2018-03-02T19:46:32.303Z,55.20
2018-03-02T19:49:03.546Z,54.77
2018-03-02T19:51:31.909Z,54.74
2018-03-02T19:54:00.200Z,55.17
2018-03-02T19:56:28.777Z,54.03
2018-03-02T19:58:57.583Z,54.99
2018-03-02T20:01:26.156Z,54.06
2018-03-02T20:03:55.141Z,52.88
2018-03-02T20:06:23.633Z,52.67
2018-03-02T20:08:51.821Z,53.42
2018-03-02T20:11:20.093Z,52.91
2018-03-02T20:13:48.694Z,52.35
2018-03-02T20:16:17.983Z,51.66
2018-03-02T20:18:46.035Z,51.61
2018-03-02T20:21:15.747Z,52.31
2018-03-02T20:23:44.174Z,54.25
2018-03-02T20:26:12.934Z,55.09
2018-03-02T20:28:40.703Z,53.94
2018-03-02T20:31:08.707Z,53.91
2018-03-02T20:33:37.204Z,53.81
2018-03-02T20:36:05.986Z,53.59
2018-03-02T20:38:35.045Z,53.00
2018-03-02T20:41:02.607Z,52.78
2018-03-02T20:43:30.571Z,53.83
2018-03-02T20:45:58.788Z,53.42
2018-03-02T20:48:26.398Z,52.16
2018-03-02T20:50:54.724Z,53.14
2018-03-02T20:53:22.377Z,52.55
2018-03-02T20:55:49.958Z,51.95
2018-03-02T20:58:18.123Z,53.45
2018-03-02T21:00:45.755Z,55.09
2018-03-02T21:03:13.320Z,55.56
2018-03-02T21:05:40.945Z,56.24
2018-03-02T21:08:10.203Z,56.38
2018-03-02T21:10:38.491Z,55.87
2018-03-02T21:13:06.047Z,54.62
2018-03-02T21:15:33.680Z,53.75
2018-03-02T21:18:01.248Z,53.70
2018-03-02T21:20:29.661Z,52.58
2018-03-02T21:22:57.634Z,53.04
2018-03-02T21:25:25.533Z,52.68
2018-03-02T21:27:53.141Z,53.22
2018-03-02T21:30:21.238Z,55.47
2018-03-02T21:32:49.412Z,56.65
2018-03-02T21:35:16.985Z,57.08
2018-03-02T21:37:44.589Z,56.83
2018-03-02T21:40:13.096Z,55.61
2018-03-02T21:42:40.700Z,54.40
2018-03-02T21:45:08.674Z,53.66
2018-03-02T21:47:37.009Z,52.72
2018-03-02T21:50:04.580Z,54.89
2018-03-02T21:52:32.185Z,56.02
2018-03-02T21:54:59.742Z,57.01
2018-03-02T21:57:27.856Z,57.28
2018-03-02T21:59:55.461Z,55.59
2018-03-02T22:02:23.011Z,54.92
2018-03-02T22:04:50.620Z,54.41
2018-03-02T22:07:18.175Z,53.59
2018-03-02T22:09:46.582Z,52.92
2018-03-02T22:12:14.988Z,52.35
2018-03-02T22:14:42.562Z,54.20
2018-03-02T22:17:10.629Z,56.26
2018-03-02T22:19:39.025Z,56.43
2018-03-02T22:22:06.571Z,56.40
2018-03-02T22:24:34.192Z,56.54
2018-03-02T22:27:01.796Z,56.78
2018-03-02T22:29:29.356Z,55.99
2018-03-02T22:31:57.304Z,55.94
2018-03-02T22:34:24.897Z,55.19
2018-03-02T22:36:52.447Z,55.50
2018-03-02T22:39:20.118Z,56.43
2018-03-02T22:41:47.639Z,56.42
2018-03-02T22:44:15.236Z,55.99
2018-03-02T22:46:42.823Z,56.84
2018-03-02T22:49:10.370Z,57.02
2018-03-02T22:51:38.437Z,57.03
2018-03-02T22:54:05.993Z,56.86
2018-03-02T22:56:33.584Z,55.98
2018-03-02T22:59:01.468Z,55.03
2018-03-02T23:01:29.028Z,56.02
2018-03-02T23:03:57.093Z,56.48
2018-03-02T23:06:24.688Z,55.78
2018-03-02T23:08:52.245Z,55.25
2018-03-02T23:11:19.828Z,56.23
2018-03-02T23:13:47.909Z,54.97
2018-03-02T23:16:15.920Z,54.02
2018-03-02T23:18:43.526Z,53.15
2018-03-02T23:21:11.079Z,52.52
2018-03-02T23:23:38.699Z,52.09
2018-03-02T23:26:06.296Z,52.56
2018-03-02T23:28:33.887Z,54.08
2018-03-02T23:31:01.496Z,55.17
2018-03-02T23:33:29.452Z,56.67
2018-03-02T23:35:57.055Z,58.09
2018-03-02T23:38:25.109Z,56.97
2018-03-02T23:40:52.656Z,57.90
2018-03-02T23:43:20.600Z,57.87
2018-03-02T23:45:48.190Z,56.47
2018-03-02T23:48:16.754Z,57.83
2018-03-02T23:50:44.347Z,57.76
2018-03-02T23:53:11.905Z,58.75
2018-03-02T23:55:39.493Z,61.01
2018-03-02T23:58:07.430Z,61.60
